createdAt,value
2022-12-29T00:00:48.937Z,25.89
2022-12-29T00:01:48.869Z,25.89
2022-12-29T00:02:48.948Z,25.89
2022-12-29T00:03:48.901Z,25.88
2022-12-29T00:04:48.893Z,25.91
2022-12-29T00:05:48.829Z,25.91
2022-12-29T00:06:48.832Z,25.89
2022-12-29T00:07:48.814Z,25.89
2022-12-29T00:08:48.808Z,25.91
2022-12-29T00:09:48.825Z,25.89
2022-12-29T00:10:48.790Z,25.88
2022-12-29T00:11:48.820Z,25.87
2022-12-29T00:12:48.770Z,25.88
2022-12-29T00:13:48.795Z,25.88
2022-12-29T00:14:48.756Z,25.87
2022-12-29T00:15:48.790Z,25.87
2022-12-29T00:16:48.769Z,25.88
2022-12-29T00:17:48.746Z,25.87
2022-12-29T00:18:48.750Z,25.89
2022-12-29T00:19:48.718Z,25.87
2022-12-29T00:20:48.759Z,25.88
2022-12-29T00:21:48.704Z,25.89
2022-12-29T00:22:48.702Z,25.87
2022-12-29T00:23:48.685Z,25.88
2022-12-29T00:24:48.728Z,25.85
2022-12-29T00:25:48.686Z,25.87
2022-12-29T00:26:48.693Z,25.87
2022-12-29T00:27:48.653Z,25.88
2022-12-29T00:28:48.644Z,25.87
2022-12-29T00:29:48.626Z,25.85
2022-12-29T00:30:48.731Z,25.88
2022-12-29T00:31:48.726Z,25.87
2022-12-29T00:32:48.614Z,25.88
2022-12-29T00:33:48.593Z,25.89
2022-12-29T00:34:48.617Z,25.88
2022-12-29T00:35:48.591Z,25.87
2022-12-29T00:36:48.590Z,25.89
2022-12-29T00:37:48.569Z,25.91
2022-12-29T00:38:48.553Z,25.88
2022-12-29T00:39:48.584Z,25.92
2022-12-29T00:40:48.539Z,25.92
2022-12-29T00:41:48.524Z,25.91
2022-12-29T00:42:48.547Z,25.92
2022-12-29T00:43:48.518Z,25.89
2022-12-29T00:44:48.531Z,25.93
2022-12-29T00:45:48.552Z,25.93
2022-12-29T00:46:48.544Z,25.92
2022-12-29T00:47:48.511Z,25.96
2022-12-29T00:48:48.478Z,25.93
2022-12-29T00:49:48.489Z,25.95
2022-12-29T00:50:48.448Z,25.93
2022-12-29T00:51:48.478Z,25.93
2022-12-29T00:52:48.437Z,25.96
2022-12-29T00:53:48.434Z,25.95
2022-12-29T00:54:48.445Z,25.95
2022-12-29T00:55:48.404Z,25.95
2022-12-29T00:56:48.440Z,25.93
2022-12-29T00:57:48.393Z,25.96
2022-12-29T00:58:48.390Z,25.99
2022-12-29T00:59:48.394Z,25.98
2022-12-29T01:00:48.426Z,25.96
2022-12-29T01:01:48.511Z,25.96
2022-12-29T01:02:48.450Z,25.96
2022-12-29T01:03:48.342Z,25.98
2022-12-29T01:04:48.337Z,26.01
2022-12-29T01:05:48.358Z,25.96
2022-12-29T01:06:48.319Z,25.99
2022-12-29T01:07:48.294Z,25.95
2022-12-29T01:08:48.294Z,25.96
2022-12-29T01:09:48.291Z,25.95
2022-12-29T01:10:48.298Z,25.93
2022-12-29T01:11:48.263Z,25.98
2022-12-29T01:12:48.267Z,25.96
2022-12-29T01:13:48.273Z,25.96
2022-12-29T01:14:48.282Z,25.95
2022-12-29T01:15:48.250Z,25.93
2022-12-29T01:16:48.245Z,25.92
2022-12-29T01:17:48.214Z,25.95
2022-12-29T01:18:48.239Z,25.92
2022-12-29T01:19:48.224Z,25.93
2022-12-29T01:20:48.201Z,25.91
2022-12-29T01:21:48.196Z,25.91
2022-12-29T01:22:48.198Z,25.89
2022-12-29T01:23:48.164Z,25.91
2022-12-29T01:24:48.188Z,25.92
2022-12-29T01:25:48.159Z,25.89
2022-12-29T01:26:48.244Z,25.88
2022-12-29T01:27:48.134Z,25.91
2022-12-29T01:28:48.141Z,25.89
2022-12-29T01:29:48.110Z,25.89
2022-12-29T01:30:48.111Z,25.88
2022-12-29T01:31:48.159Z,25.89
2022-12-29T01:32:48.096Z,25.88
2022-12-29T01:33:48.107Z,25.88
2022-12-29T01:34:48.088Z,25.85
2022-12-29T01:35:48.067Z,25.88
2022-12-29T01:36:48.062Z,25.88
2022-12-29T01:37:48.063Z,25.85
2022-12-29T01:38:48.048Z,25.84
2022-12-29T01:39:48.111Z,25.84
2022-12-29T01:40:48.022Z,25.85
2022-12-29T01:41:48.021Z,25.84
2022-12-29T01:42:48.003Z,25.85
2022-12-29T01:43:47.988Z,25.84
2022-12-29T01:44:47.984Z,25.87
2022-12-29T01:45:48.006Z,25.84
2022-12-29T01:46:47.967Z,25.85
2022-12-29T01:47:47.954Z,25.87
2022-12-29T01:48:47.968Z,25.85
2022-12-29T01:49:47.945Z,25.85
2022-12-29T01:50:47.966Z,25.81
2022-12-29T01:51:47.923Z,25.82
2022-12-29T01:52:47.915Z,25.84
2022-12-29T01:53:47.914Z,25.84
2022-12-29T01:54:47.928Z,25.84
2022-12-29T01:55:47.905Z,25.84
2022-12-29T01:56:47.879Z,25.84
2022-12-29T01:57:47.873Z,25.84
2022-12-29T01:58:47.867Z,25.85
2022-12-29T01:59:47.877Z,25.84
2022-12-29T02:00:47.874Z,25.84
2022-12-29T02:01:47.936Z,25.87
2022-12-29T02:02:47.867Z,25.85
2022-12-29T02:03:47.806Z,25.87
2022-12-29T02:04:47.828Z,25.87
2022-12-29T02:05:47.813Z,25.87
2022-12-29T02:06:47.797Z,25.88
2022-12-29T02:07:47.819Z,25.88
2022-12-29T02:08:47.779Z,25.88
2022-12-29T02:09:47.777Z,25.91
2022-12-29T02:10:47.749Z,25.89
2022-12-29T02:11:47.777Z,25.88
2022-12-29T02:12:47.748Z,25.87
2022-12-29T02:13:47.744Z,25.89
2022-12-29T02:14:47.717Z,25.89
2022-12-29T02:15:47.735Z,25.91
2022-12-29T02:16:47.772Z,25.91
2022-12-29T02:17:47.704Z,25.92
2022-12-29T02:18:47.688Z,25.89
2022-12-29T02:19:47.679Z,25.92
2022-12-29T02:20:47.710Z,25.89
2022-12-29T02:21:47.688Z,25.89
2022-12-29T02:22:47.644Z,25.91
2022-12-29T02:23:47.639Z,25.91
2022-12-29T02:24:47.632Z,25.92
2022-12-29T02:25:47.635Z,25.92
2022-12-29T02:26:47.642Z,25.93
2022-12-29T02:27:47.604Z,25.91
2022-12-29T02:28:47.600Z,25.93
2022-12-29T02:29:47.595Z,25.93
2022-12-29T02:30:47.587Z,25.91
2022-12-29T02:31:47.677Z,25.95
2022-12-29T02:32:47.587Z,25.95
2022-12-29T02:33:47.552Z,25.92
2022-12-29T02:34:47.570Z,25.91
2022-12-29T02:35:47.535Z,25.92
2022-12-29T02:36:47.536Z,25.92
2022-12-29T02:37:47.557Z,25.92
2022-12-29T02:38:47.524Z,25.93
2022-12-29T02:39:47.507Z,25.92
2022-12-29T02:40:47.486Z,25.89
2022-12-29T02:41:47.514Z,25.89
2022-12-29T02:42:47.484Z,25.91
2022-12-29T02:43:47.480Z,25.92
2022-12-29T02:44:47.471Z,25.88
2022-12-29T02:45:47.467Z,25.89
2022-12-29T02:46:47.471Z,25.89
2022-12-29T02:47:47.437Z,25.88
2022-12-29T02:48:47.428Z,25.91
2022-12-29T02:49:47.414Z,25.89
2022-12-29T02:50:47.431Z,25.92
2022-12-29T02:51:47.421Z,25.89
2022-12-29T02:52:47.401Z,25.91
2022-12-29T02:53:47.397Z,25.89
2022-12-29T02:54:47.374Z,25.88
2022-12-29T02:55:47.357Z,25.88
2022-12-29T02:56:47.445Z,25.87
2022-12-29T02:57:47.350Z,25.88
2022-12-29T02:58:47.380Z,25.85
2022-12-29T02:59:47.337Z,25.89
2022-12-29T03:00:47.394Z,25.87
2022-12-29T03:01:47.443Z,25.88
2022-12-29T03:02:47.439Z,25.87
2022-12-29T03:03:47.336Z,25.88
2022-12-29T03:04:47.281Z,25.87
2022-12-29T03:05:47.283Z,25.85
2022-12-29T03:06:47.285Z,25.87
2022-12-29T03:07:47.286Z,25.85
2022-12-29T03:08:47.269Z,25.88
2022-12-29T03:09:47.243Z,25.85
2022-12-29T03:10:47.238Z,25.85
2022-12-29T03:11:47.232Z,25.88
2022-12-29T03:12:47.248Z,25.87
2022-12-29T03:13:47.256Z,25.87
2022-12-29T03:14:47.206Z,25.87
2022-12-29T03:15:47.193Z,25.85
2022-12-29T03:16:47.300Z,25.87
2022-12-29T03:17:47.179Z,25.88
2022-12-29T03:18:47.233Z,25.87
2022-12-29T03:19:47.155Z,25.89
2022-12-29T03:20:47.168Z,25.89
2022-12-29T03:21:47.191Z,25.88
2022-12-29T03:22:47.167Z,25.88
2022-12-29T03:23:47.121Z,25.89
2022-12-29T03:24:47.143Z,25.88
2022-12-29T03:25:47.140Z,25.89
2022-12-29T03:26:47.093Z,25.91
2022-12-29T03:27:47.101Z,25.91
2022-12-29T03:28:47.090Z,25.91
2022-12-29T03:29:47.103Z,25.89
2022-12-29T03:30:47.114Z,25.89
2022-12-29T03:31:47.048Z,25.92
2022-12-29T03:32:47.045Z,25.92
2022-12-29T03:33:47.057Z,25.91
2022-12-29T03:34:47.037Z,25.91
2022-12-29T03:35:47.034Z,25.93
2022-12-29T03:36:47.040Z,25.95
2022-12-29T03:37:47.063Z,25.92
2022-12-29T03:38:47.036Z,25.93
2022-12-29T03:39:47.003Z,25.95
2022-12-29T03:40:46.983Z,25.93
2022-12-29T03:41:46.971Z,25.93
2022-12-29T03:42:46.977Z,25.95
2022-12-29T03:43:46.964Z,25.98
2022-12-29T03:44:46.982Z,25.95
2022-12-29T03:45:47.019Z,25.93
2022-12-29T03:46:46.961Z,25.93
2022-12-29T03:47:46.909Z,25.92
2022-12-29T03:48:46.936Z,25.93
2022-12-29T03:49:46.937Z,25.96
2022-12-29T03:50:46.893Z,25.93
2022-12-29T03:51:49.031Z,25.95
2022-12-29T03:52:46.873Z,25.93
2022-12-29T03:53:46.892Z,25.93
2022-12-29T03:54:46.855Z,25.92
2022-12-29T03:55:46.842Z,25.95
2022-12-29T03:56:46.888Z,25.92
2022-12-29T03:57:46.861Z,25.92
2022-12-29T03:58:46.816Z,25.96
2022-12-29T03:59:46.839Z,25.91
2022-12-29T04:00:46.817Z,25.91
2022-12-29T04:01:46.884Z,25.93
2022-12-29T04:02:47.048Z,25.89
2022-12-29T04:03:46.793Z,25.92
2022-12-29T04:04:46.786Z,25.91
2022-12-29T04:05:46.767Z,25.91
2022-12-29T04:06:46.745Z,25.91
2022-12-29T04:07:46.733Z,25.91
2022-12-29T04:08:46.734Z,25.92
2022-12-29T04:09:46.754Z,25.89
2022-12-29T04:10:46.758Z,25.91
2022-12-29T04:11:46.711Z,25.89
2022-12-29T04:12:46.709Z,25.89
2022-12-29T04:13:46.696Z,25.91
2022-12-29T04:14:46.696Z,25.88
2022-12-29T04:15:46.719Z,25.88
2022-12-29T04:16:46.702Z,25.91
2022-12-29T04:17:46.660Z,25.89
2022-12-29T04:18:46.649Z,25.88
2022-12-29T04:19:46.680Z,25.89
2022-12-29T04:20:46.636Z,25.88
2022-12-29T04:21:46.615Z,25.85
2022-12-29T04:22:46.630Z,25.88
2022-12-29T04:23:46.645Z,25.85
2022-12-29T04:24:46.614Z,25.88
2022-12-29T04:25:46.598Z,25.87
2022-12-29T04:26:46.579Z,25.87
2022-12-29T04:27:46.577Z,25.87
2022-12-29T04:28:46.579Z,25.88
2022-12-29T04:29:46.587Z,25.85
2022-12-29T04:30:46.632Z,25.85
2022-12-29T04:31:46.815Z,25.87
2022-12-29T04:32:46.524Z,25.87
2022-12-29T04:33:46.545Z,25.85
2022-12-29T04:34:46.538Z,25.85
2022-12-29T04:35:46.499Z,25.82
2022-12-29T04:36:46.521Z,25.85
2022-12-29T04:37:46.484Z,25.85
2022-12-29T04:38:46.488Z,25.85
2022-12-29T04:39:46.472Z,25.85
2022-12-29T04:40:46.463Z,25.88
2022-12-29T04:41:46.472Z,25.85
2022-12-29T04:42:46.450Z,25.84
2022-12-29T04:43:46.429Z,25.85
2022-12-29T04:44:46.437Z,25.88
2022-12-29T04:45:46.434Z,25.84
2022-12-29T04:46:46.505Z,25.85
2022-12-29T04:47:46.401Z,25.85
2022-12-29T04:48:46.398Z,25.85
2022-12-29T04:49:46.387Z,25.85
2022-12-29T04:50:46.373Z,25.85
2022-12-29T04:51:46.377Z,25.85
2022-12-29T04:52:46.353Z,25.88
2022-12-29T04:53:46.347Z,25.87
2022-12-29T04:54:46.345Z,25.84
2022-12-29T04:55:46.369Z,25.84
2022-12-29T04:56:46.316Z,25.87
2022-12-29T04:57:46.322Z,25.87
2022-12-29T04:58:46.318Z,25.87
2022-12-29T04:59:46.308Z,25.88
2022-12-29T05:00:46.302Z,25.88
2022-12-29T05:01:46.353Z,25.88
2022-12-29T05:02:46.443Z,25.88
2022-12-29T05:03:46.328Z,25.85
2022-12-29T05:04:46.242Z,25.88
2022-12-29T05:05:46.265Z,25.91
2022-12-29T05:06:46.241Z,25.89
2022-12-29T05:07:46.226Z,25.89
2022-12-29T05:08:46.222Z,25.91
2022-12-29T05:09:46.201Z,25.92
2022-12-29T05:10:46.217Z,25.88
2022-12-29T05:11:46.205Z,25.92
2022-12-29T05:12:46.201Z,25.91
2022-12-29T05:13:46.170Z,25.92
2022-12-29T05:14:46.162Z,25.88
2022-12-29T05:15:46.217Z,25.92
2022-12-29T05:16:46.155Z,25.89
2022-12-29T05:17:46.168Z,25.92
2022-12-29T05:18:46.124Z,25.92
2022-12-29T05:19:46.134Z,25.91
2022-12-29T05:20:46.114Z,25.91
2022-12-29T05:21:46.130Z,25.92
2022-12-29T05:22:46.098Z,25.93
2022-12-29T05:23:46.077Z,25.93
2022-12-29T05:24:46.119Z,25.89
2022-12-29T05:25:46.135Z,25.92
2022-12-29T05:26:46.059Z,25.93
2022-12-29T05:27:46.078Z,25.91
2022-12-29T05:28:46.044Z,25.93
2022-12-29T05:29:46.045Z,25.93
2022-12-29T05:30:46.028Z,25.93
2022-12-29T05:31:46.087Z,25.92
2022-12-29T05:32:46.013Z,25.92
2022-12-29T05:33:46.022Z,25.93
2022-12-29T05:34:45.997Z,25.92
2022-12-29T05:35:46.010Z,25.91
2022-12-29T05:36:45.970Z,25.93
2022-12-29T05:37:45.971Z,25.93
2022-12-29T05:38:45.969Z,25.93
2022-12-29T05:39:45.989Z,25.93
2022-12-29T05:40:45.934Z,25.95
2022-12-29T05:41:45.938Z,25.93
2022-12-29T05:42:45.922Z,25.95
2022-12-29T05:43:45.919Z,25.93
2022-12-29T05:44:45.911Z,25.91
2022-12-29T05:45:45.925Z,25.93
2022-12-29T05:46:45.962Z,25.95
2022-12-29T05:47:45.883Z,25.92
2022-12-29T05:48:45.874Z,25.92
2022-12-29T05:49:45.876Z,25.91
2022-12-29T05:50:45.878Z,25.92
2022-12-29T05:51:45.838Z,25.92
2022-12-29T05:52:45.870Z,25.92
2022-12-29T05:53:45.839Z,25.91
2022-12-29T05:54:45.841Z,25.92
2022-12-29T05:55:48.681Z,25.92
2022-12-29T05:56:45.854Z,25.91
2022-12-29T05:57:45.791Z,25.92
2022-12-29T05:58:45.791Z,25.91
2022-12-29T05:59:45.784Z,25.89
2022-12-29T06:00:45.779Z,25.92
2022-12-29T06:01:45.963Z,25.92
2022-12-29T06:02:45.986Z,25.91
2022-12-29T06:03:48.293Z,25.91
2022-12-29T06:04:45.730Z,25.89
2022-12-29T06:05:45.728Z,25.89
2022-12-29T06:06:45.720Z,25.91
2022-12-29T06:07:45.788Z,25.92
2022-12-29T06:08:45.709Z,25.89
2022-12-29T06:09:45.686Z,25.88
2022-12-29T06:10:45.675Z,25.88
2022-12-29T06:11:45.680Z,25.89
2022-12-29T06:12:45.709Z,25.88
2022-12-29T06:13:45.652Z,25.89
2022-12-29T06:14:45.668Z,25.85
2022-12-29T06:15:45.649Z,25.88
2022-12-29T06:16:45.656Z,25.85
2022-12-29T06:17:45.669Z,25.89
2022-12-29T06:18:45.606Z,25.87
2022-12-29T06:19:45.599Z,25.85
2022-12-29T06:20:45.596Z,25.85
2022-12-29T06:21:45.601Z,25.87
2022-12-29T06:22:45.585Z,25.88
2022-12-29T06:23:45.599Z,25.87
2022-12-29T06:24:45.561Z,25.88
2022-12-29T06:25:45.560Z,25.88
2022-12-29T06:26:45.540Z,25.88
2022-12-29T06:27:45.559Z,25.87
2022-12-29T06:28:45.529Z,25.87
2022-12-29T06:29:45.525Z,25.88
2022-12-29T06:30:45.514Z,25.87
2022-12-29T06:31:45.522Z,25.87
2022-12-29T06:32:45.507Z,25.88
2022-12-29T06:33:49.708Z,25.87
2022-12-29T06:34:45.486Z,25.87
2022-12-29T06:35:45.468Z,25.87
2022-12-29T06:36:45.479Z,25.88
2022-12-29T06:37:45.482Z,25.88
2022-12-29T06:38:45.440Z,25.87
2022-12-29T06:39:45.481Z,25.91
2022-12-29T06:40:45.442Z,25.88
2022-12-29T06:41:45.420Z,25.88
2022-12-29T06:42:45.410Z,25.89
2022-12-29T06:43:45.480Z,25.91
2022-12-29T06:44:45.384Z,25.88
2022-12-29T06:45:45.415Z,25.88
2022-12-29T06:46:45.366Z,25.89
2022-12-29T06:47:45.361Z,25.87
2022-12-29T06:48:45.360Z,25.89
2022-12-29T06:49:45.372Z,25.91
2022-12-29T06:50:45.338Z,25.91
2022-12-29T06:51:45.326Z,25.91
2022-12-29T06:52:45.338Z,25.89
2022-12-29T06:53:45.312Z,25.91
2022-12-29T06:54:45.300Z,25.91
2022-12-29T06:55:45.299Z,25.91
2022-12-29T06:56:45.278Z,25.91
2022-12-29T06:57:45.311Z,25.87
2022-12-29T06:58:45.294Z,25.91
2022-12-29T06:59:45.288Z,25.89
2022-12-29T07:00:45.287Z,25.89
2022-12-29T07:01:45.265Z,25.91
2022-12-29T07:02:45.387Z,25.92
2022-12-29T07:03:45.257Z,25.91
2022-12-29T07:04:45.212Z,25.89
2022-12-29T07:05:45.217Z,25.88
2022-12-29T07:06:45.193Z,25.88
2022-12-29T07:07:45.185Z,25.88
2022-12-29T07:08:45.200Z,25.89
2022-12-29T07:09:45.170Z,25.89
2022-12-29T07:10:45.168Z,25.88
2022-12-29T07:11:45.157Z,25.87
2022-12-29T07:12:45.167Z,25.89
2022-12-29T07:13:45.137Z,25.88
2022-12-29T07:14:45.118Z,25.88
2022-12-29T07:15:45.122Z,25.88
2022-12-29T07:16:45.149Z,25.89
2022-12-29T07:17:45.131Z,25.87
2022-12-29T07:18:45.091Z,25.89
2022-12-29T07:19:45.102Z,25.87
2022-12-29T07:20:45.072Z,25.89
2022-12-29T07:21:45.085Z,25.88
2022-12-29T07:22:45.074Z,25.87
2022-12-29T07:23:45.067Z,25.88
2022-12-29T07:24:45.036Z,25.88
2022-12-29T07:25:45.040Z,25.88
2022-12-29T07:26:45.024Z,25.88
2022-12-29T07:27:45.016Z,25.88
2022-12-29T07:28:45.035Z,25.85
2022-12-29T07:29:45.017Z,25.88
2022-12-29T07:30:44.990Z,25.89
2022-12-29T07:31:45.045Z,25.87
2022-12-29T07:32:45.012Z,25.88
2022-12-29T07:33:44.970Z,25.91
2022-12-29T07:34:44.957Z,25.88
2022-12-29T07:35:44.943Z,25.88
2022-12-29T07:36:44.932Z,25.88
2022-12-29T07:37:44.938Z,25.89
2022-12-29T07:38:44.952Z,25.89
2022-12-29T07:39:44.950Z,25.89
2022-12-29T07:40:44.905Z,25.89
2022-12-29T07:41:44.888Z,25.91
2022-12-29T07:42:44.878Z,25.89
2022-12-29T07:43:44.886Z,25.92
2022-12-29T07:44:44.871Z,25.91
2022-12-29T07:45:44.918Z,25.91
2022-12-29T07:46:56.143Z,25.89
2022-12-29T07:47:45.844Z,25.89
2022-12-29T07:48:44.831Z,25.92
2022-12-29T07:49:44.849Z,25.92
2022-12-29T07:50:44.813Z,25.93
2022-12-29T07:51:44.827Z,25.92
2022-12-29T07:52:44.797Z,25.93
2022-12-29T07:53:44.789Z,25.92
2022-12-29T07:54:44.800Z,25.95
2022-12-29T07:55:44.764Z,25.93
2022-12-29T07:56:44.760Z,25.95
2022-12-29T07:57:44.754Z,25.93
2022-12-29T07:58:44.776Z,25.96
2022-12-29T07:59:44.727Z,25.92
2022-12-29T08:00:44.732Z,25.92
2022-12-29T08:01:44.837Z,25.96
2022-12-29T08:02:44.852Z,25.95
2022-12-29T08:03:44.790Z,25.95
2022-12-29T08:04:44.719Z,25.95
2022-12-29T08:05:44.685Z,25.96
2022-12-29T08:06:44.680Z,25.98
2022-12-29T08:07:44.674Z,25.96
2022-12-29T08:08:44.657Z,25.98
2022-12-29T08:09:44.687Z,25.96
2022-12-29T08:10:44.639Z,25.98
2022-12-29T08:11:44.642Z,25.95
2022-12-29T08:12:44.630Z,25.96
2022-12-29T08:13:44.610Z,25.93
2022-12-29T08:14:44.634Z,25.95
2022-12-29T08:15:44.661Z,25.96
2022-12-29T08:16:44.602Z,25.93
2022-12-29T08:17:44.588Z,25.96
2022-12-29T08:18:44.599Z,25.95
2022-12-29T08:19:44.587Z,25.93
2022-12-29T08:20:44.560Z,25.93
2022-12-29T08:21:44.548Z,25.93
2022-12-29T08:22:44.571Z,25.95
2022-12-29T08:23:44.527Z,25.95
2022-12-29T08:24:44.523Z,25.96
2022-12-29T08:25:44.510Z,25.93
2022-12-29T08:26:44.514Z,25.95
2022-12-29T08:27:44.488Z,25.93
2022-12-29T08:28:44.507Z,25.93
2022-12-29T08:29:44.478Z,25.92
2022-12-29T08:30:44.565Z,25.89
2022-12-29T08:31:44.495Z,25.92
2022-12-29T08:32:44.457Z,25.92
2022-12-29T08:33:44.469Z,25.93
2022-12-29T08:34:44.446Z,25.88
2022-12-29T08:35:44.416Z,25.91
2022-12-29T08:36:44.440Z,25.89
2022-12-29T08:37:44.414Z,25.89
2022-12-29T08:38:44.402Z,25.89
2022-12-29T08:39:44.429Z,25.89
2022-12-29T08:40:44.393Z,25.89
2022-12-29T08:41:44.370Z,25.88
2022-12-29T08:42:44.362Z,25.91
2022-12-29T08:43:44.361Z,25.91
2022-12-29T08:44:44.351Z,25.91
2022-12-29T08:45:44.361Z,25.89
2022-12-29T08:46:44.519Z,25.89
2022-12-29T08:47:44.314Z,25.89
2022-12-29T08:48:44.314Z,25.89
2022-12-29T08:49:44.308Z,25.89
2022-12-29T08:50:44.321Z,25.91
2022-12-29T08:51:44.284Z,25.89
2022-12-29T08:52:44.283Z,25.89
2022-12-29T08:53:44.270Z,25.87
2022-12-29T08:54:44.287Z,25.89
2022-12-29T08:55:44.273Z,25.87
2022-12-29T08:56:44.242Z,25.88
2022-12-29T08:57:44.239Z,25.89
2022-12-29T08:58:44.249Z,25.91
2022-12-29T08:59:44.216Z,25.88
2022-12-29T09:00:44.229Z,25.89
2022-12-29T09:01:44.298Z,25.88
2022-12-29T09:02:44.435Z,25.91
2022-12-29T09:04:15.355Z,25.87
2022-12-29T09:04:45.231Z,25.89
2022-12-29T09:05:44.192Z,25.89
2022-12-29T09:06:44.199Z,25.92
2022-12-29T09:07:44.146Z,25.89
2022-12-29T09:08:44.141Z,25.92
2022-12-29T09:09:44.126Z,25.91
2022-12-29T09:10:44.144Z,25.89
2022-12-29T09:11:44.125Z,25.91
2022-12-29T09:12:44.098Z,25.91
2022-12-29T09:13:44.092Z,25.91
2022-12-29T09:14:44.089Z,25.92
2022-12-29T09:15:44.184Z,25.93
2022-12-29T09:16:44.071Z,25.92
2022-12-29T09:17:44.064Z,25.95
2022-12-29T09:18:44.048Z,25.93
2022-12-29T09:19:44.089Z,25.93
2022-12-29T09:20:44.041Z,25.95
2022-12-29T09:21:44.045Z,25.96
2022-12-29T09:22:44.022Z,25.95
2022-12-29T09:23:44.010Z,25.95
2022-12-29T09:24:43.997Z,25.95
2022-12-29T09:25:44.014Z,25.99
2022-12-29T09:26:47.093Z,25.96
2022-12-29T09:27:43.974Z,25.99
2022-12-29T09:28:43.983Z,25.98
2022-12-29T09:29:43.960Z,25.98
2022-12-29T09:30:43.963Z,26.01
2022-12-29T09:31:44.006Z,25.99
2022-12-29T09:32:45.832Z,25.98
2022-12-29T09:33:43.922Z,26.01
2022-12-29T09:34:43.930Z,26.01
2022-12-29T09:35:43.927Z,25.99
2022-12-29T09:36:43.933Z,26.01
2022-12-29T09:37:43.892Z,26.03
2022-12-29T09:38:43.885Z,26.01
2022-12-29T09:39:47.810Z,26.02
2022-12-29T09:40:44.882Z,26.05
2022-12-29T09:41:43.844Z,26.02
2022-12-29T09:42:43.844Z,26.02
2022-12-29T09:43:43.846Z,26.03
2022-12-29T09:44:43.850Z,26.02
2022-12-29T09:45:43.817Z,26.02
2022-12-29T09:46:43.873Z,26.03
2022-12-29T09:47:43.796Z,26.03
2022-12-29T09:48:43.790Z,26.03
2022-12-29T09:49:43.802Z,26.03
2022-12-29T09:50:43.776Z,26.03
2022-12-29T09:51:43.762Z,26.02
2022-12-29T09:52:43.758Z,26.01
2022-12-29T09:53:43.751Z,26.01
2022-12-29T09:54:44.777Z,26.03
2022-12-29T09:55:43.728Z,26.01
2022-12-29T09:56:43.745Z,25.99
2022-12-29T09:57:43.712Z,25.98
2022-12-29T09:58:43.721Z,25.99
2022-12-29T09:59:43.727Z,25.99
2022-12-29T10:00:43.702Z,25.99
2022-12-29T10:01:43.853Z,25.99
2022-12-29T10:02:43.841Z,25.98
2022-12-29T10:03:43.665Z,25.95
2022-12-29T10:04:43.665Z,25.95
2022-12-29T10:05:43.641Z,25.93
2022-12-29T10:07:11.421Z,25.95
2022-12-29T10:07:44.624Z,25.95
2022-12-29T10:08:43.622Z,25.92
2022-12-29T10:09:43.603Z,25.93
2022-12-29T10:10:43.602Z,25.91
2022-12-29T10:11:43.633Z,25.89
2022-12-29T10:12:43.593Z,25.89
2022-12-29T10:13:43.598Z,25.89
2022-12-29T10:14:43.567Z,25.91
2022-12-29T10:15:43.581Z,25.89
2022-12-29T10:16:43.602Z,25.91
2022-12-29T10:17:43.552Z,25.89
2022-12-29T10:18:43.526Z,25.87
2022-12-29T10:19:43.527Z,25.91
2022-12-29T10:20:43.541Z,25.87
2022-12-29T10:21:43.533Z,25.88
2022-12-29T10:22:43.488Z,25.88
2022-12-29T10:23:43.477Z,25.87
2022-12-29T10:24:43.499Z,25.91
2022-12-29T10:25:43.501Z,25.89
2022-12-29T10:26:43.460Z,25.89
2022-12-29T10:27:43.469Z,25.89
2022-12-29T10:28:43.446Z,25.89
2022-12-29T10:29:43.457Z,25.87
2022-12-29T10:30:43.456Z,25.89
2022-12-29T10:31:43.537Z,25.89
2022-12-29T10:32:43.421Z,25.89
2022-12-29T10:33:43.407Z,25.91
2022-12-29T10:34:43.399Z,25.92
2022-12-29T10:35:43.375Z,25.92
2022-12-29T10:36:43.400Z,25.91
2022-12-29T10:37:43.398Z,25.93
2022-12-29T10:38:43.359Z,25.92
2022-12-29T10:39:43.354Z,25.95
2022-12-29T10:40:43.341Z,25.95
2022-12-29T10:41:43.414Z,25.96
2022-12-29T10:42:43.324Z,25.95
2022-12-29T10:43:43.330Z,25.93
2022-12-29T10:44:43.309Z,25.96
2022-12-29T10:45:43.343Z,25.98
2022-12-29T10:46:43.334Z,25.99
2022-12-29T10:47:43.296Z,26.01
2022-12-29T10:48:43.283Z,26.01
2022-12-29T10:49:43.273Z,26.01
2022-12-29T10:50:43.291Z,25.99
2022-12-29T10:51:43.297Z,26.01
2022-12-29T10:52:43.240Z,26.05
2022-12-29T10:53:43.253Z,26.06
2022-12-29T10:54:43.235Z,26.05
2022-12-29T10:55:43.267Z,26.05
2022-12-29T10:56:43.220Z,26.08
2022-12-29T10:57:43.384Z,26.08
2022-12-29T10:58:48.067Z,26.10
2022-12-29T10:59:44.230Z,26.12
2022-12-29T11:00:43.227Z,26.13
2022-12-29T11:01:43.305Z,26.12
2022-12-29T11:02:43.352Z,26.13
2022-12-29T11:03:43.160Z,26.15
2022-12-29T11:04:43.191Z,26.18
2022-12-29T11:05:43.132Z,26.16
2022-12-29T11:06:43.154Z,26.16
2022-12-29T11:07:43.123Z,26.19
2022-12-29T11:08:43.104Z,26.18
2022-12-29T11:09:43.595Z,26.22
2022-12-29T11:10:43.095Z,26.22
2022-12-29T11:11:43.111Z,26.23
2022-12-29T11:12:43.072Z,26.22
2022-12-29T11:13:43.068Z,26.25
2022-12-29T11:14:43.057Z,26.26
2022-12-29T11:15:43.109Z,26.25
2022-12-29T11:16:43.101Z,26.26
2022-12-29T11:17:43.041Z,26.27
2022-12-29T11:18:43.089Z,26.27
2022-12-29T11:19:43.019Z,26.27
2022-12-29T11:20:43.003Z,26.27
2022-12-29T11:21:43.144Z,26.27
2022-12-29T11:22:42.986Z,26.26
2022-12-29T11:23:42.985Z,26.26
2022-12-29T11:24:43.026Z,26.27
2022-12-29T11:25:42.967Z,26.27
2022-12-29T11:26:42.975Z,26.30
2022-12-29T11:27:43.016Z,26.27
2022-12-29T11:28:42.951Z,26.29
2022-12-29T11:29:42.918Z,26.29
2022-12-29T11:30:42.909Z,26.32
2022-12-29T11:31:42.978Z,26.33
2022-12-29T11:32:42.921Z,26.30
2022-12-29T11:33:42.899Z,26.32
2022-12-29T11:34:42.893Z,26.29
2022-12-29T11:35:42.885Z,26.30
2022-12-29T11:36:42.858Z,26.29
2022-12-29T11:37:42.855Z,26.30
2022-12-29T11:38:42.888Z,26.29
2022-12-29T11:39:42.862Z,26.27
2022-12-29T11:40:42.834Z,26.29
2022-12-29T11:41:42.812Z,26.27
2022-12-29T11:42:42.842Z,26.29
2022-12-29T11:43:42.851Z,26.29
2022-12-29T11:44:42.798Z,26.29
2022-12-29T11:45:42.931Z,26.29
2022-12-29T11:46:42.787Z,26.27
2022-12-29T11:47:42.773Z,26.26
2022-12-29T11:48:42.806Z,26.27
2022-12-29T11:49:42.753Z,26.29
2022-12-29T11:50:42.768Z,26.30
2022-12-29T11:51:42.728Z,26.30
2022-12-29T11:52:42.721Z,26.29
2022-12-29T11:53:42.773Z,26.29
2022-12-29T11:54:42.743Z,26.32
2022-12-29T11:55:42.728Z,26.32
2022-12-29T11:56:42.735Z,26.35
2022-12-29T11:57:42.690Z,26.35
2022-12-29T11:58:42.720Z,26.33
2022-12-29T11:59:42.663Z,26.35
2022-12-29T12:00:42.693Z,26.36
2022-12-29T12:01:42.735Z,26.33
2022-12-29T12:02:43.609Z,26.35
2022-12-29T12:03:42.719Z,26.37
2022-12-29T12:04:42.649Z,26.39
2022-12-29T12:05:42.614Z,26.42
2022-12-29T12:06:42.667Z,26.40
2022-12-29T12:07:42.599Z,26.40
2022-12-29T12:08:42.669Z,26.42
2022-12-29T12:09:42.618Z,26.40
2022-12-29T12:10:42.595Z,26.43
2022-12-29T12:11:42.590Z,26.43
2022-12-29T12:12:42.593Z,26.46
2022-12-29T12:13:42.559Z,26.47
2022-12-29T12:14:42.570Z,26.50
2022-12-29T12:15:46.775Z,26.48
2022-12-29T12:16:43.644Z,26.48
2022-12-29T12:17:42.536Z,26.53
2022-12-29T12:18:42.561Z,26.50
2022-12-29T12:19:42.516Z,26.50
2022-12-29T12:20:42.486Z,26.54
2022-12-29T12:21:45.774Z,26.60
2022-12-29T12:22:42.465Z,26.57
2022-12-29T12:23:42.494Z,26.58
2022-12-29T12:24:42.451Z,26.60
2022-12-29T12:25:42.498Z,26.60
2022-12-29T12:26:42.475Z,26.57
2022-12-29T12:27:42.453Z,26.57
2022-12-29T12:28:42.424Z,26.60
2022-12-29T12:29:42.421Z,26.61
2022-12-29T12:30:42.506Z,26.61
2022-12-29T12:31:42.399Z,26.64
2022-12-29T12:32:42.375Z,26.63
2022-12-29T12:33:42.379Z,26.64
2022-12-29T12:34:42.379Z,26.64
2022-12-29T12:35:42.353Z,26.65
2022-12-29T12:36:42.355Z,26.67
2022-12-29T12:37:42.335Z,26.70
2022-12-29T12:38:42.328Z,26.70
2022-12-29T12:39:42.369Z,26.73
2022-12-29T12:40:42.312Z,26.73
2022-12-29T12:41:42.298Z,26.73
2022-12-29T12:42:42.291Z,26.73
2022-12-29T12:43:42.344Z,26.75
2022-12-29T12:44:42.296Z,26.78
2022-12-29T12:45:42.271Z,26.78
2022-12-29T12:46:42.330Z,26.75
2022-12-29T12:47:42.251Z,26.77
2022-12-29T12:48:42.256Z,26.78
2022-12-29T12:49:42.251Z,26.81
2022-12-29T12:50:42.258Z,26.81
2022-12-29T12:51:42.229Z,26.81
2022-12-29T12:52:42.233Z,26.84